Time;durP1;ratioP1;P1;durP2;ratioP2;P2;SDS_P1;SDS_P2;PMS_P1;PMS_P2;Temp;Humidity;BMP_temperature;BMP_pressure;BME280_temperature;BME280_humidity;BME280_pressure;Samples;Min_cycle;Max_cycle;Signal;HPM_P1;HPM_P2
2022/10/15 00:02:10;;;;;;;10.68;4.15;;;;;;;24.51;82.21;97115.75;6209000;23;20000;-87
2022/10/15 00:04:36;;;;;;;13.00;4.20;;;;;;;26.45;76.75;97108.84;6209955;23;20000;-88
2022/10/15 00:07:01;;;;;;;11.65;4.40;;;;;;;25.92;77.26;97099.81;6235234;23;20015;-87
2022/10/15 00:09:27;;;;;;;11.35;4.10;;;;;;;25.04;82.25;97095.75;6208957;23;20629;-87
2022/10/15 00:11:53;;;;;;;11.80;4.28;;;;;;;22.97;87.21;97090.34;6208389;23;20004;-88
2022/10/15 00:14:18;;;;;;;12.82;4.85;;;;;;;23.76;87.55;97094.09;6235430;23;20350;-87
2022/10/15 00:16:44;;;;;;;11.52;4.72;;;;;;;24.19;84.72;97090.25;6209556;23;20012;-87
2022/10/15 00:19:09;;;;;;;10.40;3.47;;;;;;;23.89;87.28;97086.72;6209680;23;20011;-87
2022/10/15 00:21:36;;;;;;;10.90;3.50;;;;;;;23.83;84.70;97081.94;6236193;23;20432;-87
2022/10/15 00:24:02;;;;;;;10.85;3.58;;;;;;;23.82;84.90;97070.44;6208595;23;20016;-87
2022/10/15 00:26:28;;;;;;;10.65;3.80;;;;;;;23.56;87.84;97074.59;6236938;23;20008;-88
2022/10/15 00:28:56;;;;;;;9.50;3.88;;;;;;;23.80;86.21;97060.91;6209756;23;20008;-87
2022/10/15 00:31:25;;;;;;;11.35;3.78;;;;;;;24.07;88.20;97056.75;6236633;23;20091;-87
2022/10/15 00:33:51;;;;;;;13.50;4.18;;;;;;;24.79;84.41;97042.06;6209387;23;20008;-87
2022/10/15 00:36:19;;;;;;;10.40;3.92;;;;;;;26.36;78.70;97041.09;6236401;23;20004;-87
2022/10/15 00:38:46;;;;;;;10.98;3.55;;;;;;;25.52;79.12;97032.47;6208686;23;20020;-87
2022/10/15 00:41:18;;;;;;;9.23;3.40;;;;;;;25.99;77.47;97031.44;6209286;23;20683;-87
2022/10/15 00:43:48;;;;;;;9.98;3.42;;;;;;;25.05;77.80;97036.06;6208906;23;20087;-87
2022/10/15 00:46:37;;;;;;;11.65;4.20;;;;;;;26.02;77.85;97023.97;6237048;23;20012;-87
2022/10/15 00:49:27;;;;;;;10.77;4.15;;;;;;;26.55;73.85;97032.88;6210039;23;20023;-87
2022/10/15 00:51:55;;;;;;;9.10;3.92;;;;;;;25.59;79.00;97030.03;6236418;23;20075;-87
2022/10/15 00:54:22;;;;;;;11.98;4.70;;;;;;;25.66;80.19;97033.78;6208731;23;20015;-87
2022/10/15 00:56:49;;;;;;;11.55;4.38;;;;;;;26.52;77.26;97040.38;6234282;23;20033;-87
2022/10/15 00:59:17;;;;;;;11.15;4.07;;;;;;;24.54;82.11;97049.69;6235392;23;20012;-87
2022/10/15 01:01:43;;;;;;;10.10;3.90;;;;;;;22.98;89.96;97060.97;6234272;23;20015;-87
2022/10/15 01:04:10;;;;;;;10.70;4.50;;;;;;;23.66;87.96;97047.03;6236337;23;20000;-88
2022/10/15 01:06:36;;;;;;;10.70;4.32;;;;;;;23.78;88.59;97036.25;6234902;23;20011;-87
2022/10/15 01:09:03;;;;;;;12.60;4.47;;;;;;;22.08;92.79;97037.63;6235848;23;20477;-88
2022/10/15 01:11:34;;;;;;;12.98;4.47;;;;;;;21.20;100.00;97024.38;6211786;23;20472;-89
2022/10/15 01:14:12;;;;;;;11.50;4.65;;;;;;;20.78;100.00;97008.28;6212800;23;20015;-89
2022/10/15 01:16:45;;;;;;;13.95;5.38;;;;;;;20.90;100.00;97009.09;6211973;23;20481;-89
2022/10/15 01:19:26;;;;;;;13.68;5.68;;;;;;;20.17;100.00;97016.47;6238999;23;20058;-88
2022/10/15 01:22:23;;;;;;;14.63;5.72;;;;;;;20.97;100.00;97003.19;6239042;23;20062;-88
2022/10/15 01:25:03;;;;;;;16.17;5.78;;;;;;;20.78;100.00;97000.31;6239536;23;19997;-89
2022/10/15 01:27:33;;;;;;;15.32;5.88;;;;;;;22.01;100.00;96999.28;6212257;23;20457;-89
2022/10/15 01:30:24;;;;;;;13.38;5.68;;;;;;;21.78;100.00;96991.41;6212637;23;20586;-89
2022/10/15 01:32:59;;;;;;;11.85;5.30;;;;;;;22.10;100.00;96990.53;6210435;23;20015;-87
2022/10/15 01:35:27;;;;;;;15.35;6.28;;;;;;;21.60;100.00;96977.88;6210165;23;20020;-88
2022/10/15 01:38:19;;;;;;;15.98;6.40;;;;;;;21.64;100.00;96971.34;6210611;23;20012;-89
2022/10/15 01:40:52;;;;;;;13.30;5.80;;;;;;;22.01;100.00;96973.56;6220703;23;20012;-89
2022/10/15 01:43:29;;;;;;;12.68;5.70;;;;;;;22.52;100.00;96949.84;6238176;23;20134;-88
2022/10/15 01:46:04;;;;;;;14.93;5.65;;;;;;;22.97;98.98;96952.94;6211451;23;20016;-89
2022/10/15 01:48:33;;;;;;;13.70;5.30;;;;;;;22.24;100.00;96941.56;6237823;23;20079;-89
2022/10/15 01:51:03;;;;;;;11.60;5.13;;;;;;;22.99;99.76;96934.19;6210979;23;20027;-88
2022/10/15 01:53:33;;;;;;;11.43;4.93;;;;;;;22.72;99.47;96929.50;6210132;23;20016;-89
2022/10/15 01:56:08;;;;;;;11.00;4.47;;;;;;;22.90;99.86;96927.03;6238030;23;20083;-88
2022/10/15 01:58:39;;;;;;;10.23;4.13;;;;;;;22.82;99.81;96917.91;6234087;23;20007;-87
2022/10/15 02:01:04;;;;;;;9.98;3.75;;;;;;;23.30;98.72;96900.41;6208491;23;20084;-96
2022/10/15 02:03:29;;;;;;;11.00;3.65;;;;;;;22.74;100.00;96890.34;6242374;23;20435;-95
2022/10/15 02:06:12;;;;;;;10.13;3.70;;;;;;;22.52;100.00;96888.75;6242863;23;20019;-95
2022/10/15 02:08:44;;;;;;;7.90;3.00;;;;;;;22.69;99.63;96874.81;6243936;23;20358;-95
2022/10/15 02:11:13;;;;;;;8.77;3.15;;;;;;;22.79;100.00;96874.84;6244245;23;20007;-95
2022/10/15 02:14:01;;;;;;;9.02;3.38;;;;;;;23.61;95.95;96859.50;6245100;23;20034;-95
2022/10/15 02:16:47;;;;;;;11.63;4.72;;;;;;;22.89;100.00;96861.56;6243727;23;20011;-96
2022/10/15 02:19:47;;;;;;;14.77;6.32;;;;;;;22.20;100.00;96849.88;6243750;23;20019;-96
2022/10/15 02:22:40;;;;;;;16.98;6.45;;;;;;;22.23;100.00;96844.31;6230185;23;20012;-95
2022/10/15 02:25:23;;;;;;;15.38;6.40;;;;;;;22.14;100.00;96830.88;6242397;23;20575;-95
2022/10/15 02:27:51;;;;;;;16.73;6.70;;;;;;;21.44;100.00;96835.06;6243223;23;20008;-95
2022/10/15 02:30:18;;;;;;;16.00;6.80;;;;;;;21.79;100.00;96828.59;6244813;23;20000;-96
2022/10/15 02:32:47;;;;;;;15.07;6.72;;;;;;;22.76;100.00;96830.78;6243989;23;20008;-95
2022/10/15 02:35:18;;;;;;;15.57;6.50;;;;;;;22.90;100.00;96831.34;6244878;23;20070;-95
2022/10/15 02:37:48;;;;;;;15.60;6.55;;;;;;;21.94;100.00;96827.28;6244309;23;20074;-95
2022/10/15 02:40:14;;;;;;;14.32;5.47;;;;;;;21.79;100.00;96826.78;6243871;23;20018;-95
2022/10/15 02:42:40;;;;;;;14.00;5.20;;;;;;;21.29;100.00;96826.56;6244661;23;20023;-96
2022/10/15 02:45:06;;;;;;;13.90;5.40;;;;;;;21.21;100.00;96813.13;6243461;23;20035;-96
2022/10/15 02:47:31;;;;;;;10.98;4.28;;;;;;;21.23;100.00;96808.53;6245144;23;20012;-96
2022/10/15 02:49:59;;;;;;;10.90;4.65;;;;;;;21.94;100.00;96799.91;6244331;23;20434;-96
2022/10/15 02:52:24;;;;;;;10.70;4.53;;;;;;;21.96;100.00;96800.59;6244419;23;20023;-96
2022/10/15 02:54:49;;;;;;;11.07;4.35;;;;;;;22.15;100.00;96791.88;6245013;23;20004;-96
2022/10/15 02:57:15;;;;;;;10.07;4.05;;;;;;;22.37;100.00;96787.38;6244981;23;20052;-96
2022/10/15 02:59:41;;;;;;;10.23;3.42;;;;;;;22.65;100.00;96791.03;6243836;23;20022;-96
2022/10/15 03:02:06;;;;;;;10.07;4.38;;;;;;;23.49;100.00;96793.16;6243863;23;20024;-95
2022/10/15 03:04:33;;;;;;;10.05;3.33;;;;;;;22.73;100.00;96782.38;6243448;23;20008;-96
2022/10/15 03:06:58;;;;;;;8.15;2.92;;;;;;;21.69;100.00;96779.97;6244328;23;20015;-95
2022/10/15 03:09:24;;;;;;;8.10;2.83;;;;;;;22.21;100.00;96779.88;6243935;23;20012;-96
2022/10/15 03:11:49;;;;;;;7.45;2.60;;;;;;;23.16;100.00;96776.66;6244389;23;20083;-96
2022/10/15 03:14:23;;;;;;;7.70;2.65;;;;;;;23.30;100.00;96761.25;6243582;23;20347;-96
2022/10/15 03:16:56;;;;;;;6.07;1.63;;;;;;;24.02;100.00;96750.94;6244060;23;20016;-95
2022/10/15 03:19:26;;;;;;;5.63;1.60;;;;;;;22.98;100.00;96741.94;6245364;23;20000;-96
2022/10/15 03:21:51;;;;;;;7.63;1.60;;;;;;;22.48;100.00;96739.44;6246197;23;20004;-96
2022/10/15 03:24:16;;;;;;;5.03;1.52;;;;;;;22.74;100.00;96729.09;6245446;23;20054;-96
2022/10/15 03:26:42;;;;;;;5.85;1.60;;;;;;;22.07;100.00;96726.16;6246755;23;20016;-96
2022/10/15 03:29:07;;;;;;;5.97;1.77;;;;;;;22.84;100.00;96729.09;6246617;23;20004;-96
2022/10/15 03:31:32;;;;;;;7.15;1.70;;;;;;;23.78;100.00;96719.50;6245336;23;20405;-96
2022/10/15 03:33:58;;;;;;;5.68;1.55;;;;;;;24.12;100.00;96714.47;6243745;23;20010;-96
2022/10/15 03:36:26;;;;;;;5.53;1.50;;;;;;;23.60;100.00;96706.97;6237308;23;20004;-96
2022/10/15 03:38:51;;;;;;;10.07;1.85;;;;;;;22.57;100.00;96708.53;6243560;23;19996;-96
2022/10/15 03:41:43;;;;;;;5.85;1.77;;;;;;;22.48;100.00;96697.75;6244346;23;20031;-96
2022/10/15 03:44:09;;;;;;;7.68;1.63;;;;;;;24.50;100.00;96691.19;6244722;23;20087;-95
2022/10/15 03:46:35;;;;;;;7.78;2.10;;;;;;;24.12;100.00;96692.31;6243248;23;20046;-96
2022/10/15 03:49:00;;;;;;;6.05;1.90;;;;;;;24.96;97.51;96696.44;6243520;23;20449;-96
2022/10/15 03:51:26;;;;;;;7.22;1.80;;;;;;;23.97;100.00;96676.03;6243531;23;20087;-96
2022/10/15 03:53:52;;;;;;;6.60;1.75;;;;;;;22.54;100.00;96661.84;6244051;23;20025;-96
2022/10/15 03:56:18;;;;;;;5.88;1.77;;;;;;;21.86;100.00;96675.00;6243659;23;20016;-96
2022/10/15 03:58:44;;;;;;;6.70;1.77;;;;;;;21.99;100.00;96679.09;6245799;23;20323;-95
2022/10/15 04:01:13;;;;;;;7.20;1.88;;;;;;;21.55;100.00;96677.72;6244352;23;20023;-96
2022/10/15 04:03:39;;;;;;;8.48;1.98;;;;;;;20.91;100.00;96653.91;6245651;23;20012;-96
2022/10/15 04:06:05;;;;;;;8.80;1.85;;;;;;;20.92;100.00;96652.94;6244918;23;20331;-96
2022/10/15 04:08:31;;;;;;;6.13;1.83;;;;;;;20.92;100.00;96649.47;6242946;23;20404;-96
2022/10/15 04:10:58;;;;;;;7.20;2.50;;;;;;;21.85;100.00;96665.34;6244790;23;20620;-96
2022/10/15 04:13:23;;;;;;;9.20;2.20;;;;;;;21.04;100.00;96644.91;6243027;23;20442;-96
2022/10/15 04:15:49;;;;;;;7.70;1.95;;;;;;;21.24;100.00;96630.78;6241539;23;20011;-96
2022/10/15 04:18:15;;;;;;;6.03;1.90;;;;;;;21.51;100.00;96639.13;6243159;23;20008;-96
2022/10/15 04:20:41;;;;;;;6.65;1.83;;;;;;;21.82;100.00;96635.50;6244075;23;20015;-96
2022/10/15 04:23:07;;;;;;;6.07;1.90;;;;;;;21.99;100.00;96633.97;6241971;23;20728;-96
2022/10/15 04:25:33;;;;;;;6.93;2.10;;;;;;;21.70;100.00;96617.13;6242195;23;20085;-95
2022/10/15 04:28:00;;;;;;;7.18;2.20;;;;;;;21.86;100.00;96600.72;6243308;23;20679;-96
2022/10/15 04:30:26;;;;;;;8.10;2.47;;;;;;;22.57;100.00;96596.97;6236755;23;20012;-96
2022/10/15 04:32:52;;;;;;;6.88;2.15;;;;;;;21.79;100.00;96605.72;6244399;23;20553;-96
2022/10/15 04:35:17;;;;;;;6.85;2.22;;;;;;;23.01;100.00;96600.75;6244125;23;20732;-96
2022/10/15 04:37:42;;;;;;;7.25;2.55;;;;;;;21.45;100.00;96606.03;6243308;23;20055;-96
2022/10/15 04:40:08;;;;;;;9.02;2.65;;;;;;;22.30;100.00;96599.31;6244225;23;20043;-96
2022/10/15 04:42:34;;;;;;;7.65;2.45;;;;;;;20.71;100.00;96597.34;6244580;23;20362;-94
2022/10/15 04:44:59;;;;;;;6.47;2.15;;;;;;;24.38;100.00;96585.84;6243640;23;20034;-96
2022/10/15 04:47:25;;;;;;;6.72;2.20;;;;;;;22.01;100.00;96591.38;6245124;23;20086;-96
2022/10/15 04:49:50;;;;;;;7.20;2.30;;;;;;;23.55;100.00;96591.31;6244853;23;20038;-96
2022/10/15 04:52:15;;;;;;;7.47;2.53;;;;;;;22.89;100.00;96582.50;6249317;23;20018;-96
2022/10/15 04:54:41;;;;;;;7.38;2.75;;;;;;;22.47;100.00;96579.22;6245100;23;20008;-96
2022/10/15 04:57:07;;;;;;;7.10;2.60;;;;;;;22.59;100.00;96576.38;6245782;23;20016;-96
2022/10/15 04:59:33;;;;;;;8.25;3.10;;;;;;;22.38;100.00;96585.41;6246106;23;20071;-96
2022/10/15 05:01:58;;;;;;;8.95;3.22;;;;;;;21.28;100.00;96579.19;6248724;23;20028;-96
2022/10/15 05:04:23;;;;;;;8.68;3.05;;;;;;;;;;6238337;23;20034;-96
2022/10/15 05:06:49;;;;;;;7.97;3.07;;;;;;;22.22;100.00;96585.09;6245621;23;20015;-95
2022/10/15 05:09:14;;;;;;;9.15;3.00;;;;;;;21.95;100.00;96568.06;6244397;23;20268;-95
2022/10/15 05:11:40;;;;;;;7.82;2.63;;;;;;;22.30;100.00;96564.81;6244233;23;20034;-96
2022/10/15 05:14:07;;;;;;;26.02;4.15;;;;;;;21.97;100.00;96568.72;6245962;23;20004;-95
2022/10/15 05:16:33;;;;;;;8.65;2.58;;;;;;;22.42;100.00;96562.03;6246006;23;20012;-96
2022/10/15 05:19:01;;;;;;;6.93;2.55;;;;;;;22.42;100.00;96562.88;6245644;23;20112;-96
2022/10/15 05:21:27;;;;;;;6.45;2.08;;;;;;;23.37;100.00;96570.84;6237886;23;20004;-95
2022/10/15 05:23:53;;;;;;;7.28;2.40;;;;;;;22.88;100.00;96564.84;6245555;23;20082;-96
2022/10/15 05:26:21;;;;;;;14.98;3.20;;;;;;;21.60;100.00;96564.94;6245848;23;20366;-96
2022/10/15 05:28:48;;;;;;;6.60;2.10;;;;;;;21.52;100.00;96561.22;6244978;23;20012;-96
2022/10/15 05:31:19;;;;;;;7.05;2.00;;;;;;;21.51;100.00;96555.09;6245155;23;20008;-96
2022/10/15 05:33:46;;;;;;;7.05;2.13;;;;;;;21.98;100.00;96554.50;6245258;23;20016;-96
2022/10/15 05:36:22;;;;;;;6.10;2.00;;;;;;;21.50;100.00;96548.09;6247266;23;20093;-96
2022/10/15 05:38:51;;;;;;;5.72;1.73;;;;;;;22.77;100.00;96540.16;6244387;23;20075;-96
2022/10/15 05:41:19;;;;;;;19.27;2.50;;;;;;;22.02;100.00;96553.25;6246419;23;20082;-96
2022/10/15 05:43:49;;;;;;;6.05;1.90;;;;;;;22.30;100.00;96540.09;6246143;23;20054;-96
2022/10/15 05:46:18;;;;;;;5.85;1.80;;;;;;;21.84;100.00;96547.78;6245427;23;20004;-96
2022/10/15 05:48:52;;;;;;;8.85;2.03;;;;;;;21.62;100.00;96540.91;6244788;23;20044;-96
2022/10/15 05:51:18;;;;;;;6.93;2.17;;;;;;;21.78;100.00;96530.59;6243955;23;20019;-96
2022/10/15 05:53:46;;;;;;;8.20;2.15;;;;;;;22.71;100.00;96543.38;6244350;23;20075;-96
2022/10/15 05:56:14;;;;;;;5.53;1.70;;;;;;;23.15;100.00;96545.50;6243317;23;20004;-96
2022/10/15 05:58:39;;;;;;;5.47;1.88;;;;;;;22.05;100.00;96560.91;6243277;23;20050;-96
2022/10/15 06:01:08;;;;;;;7.45;2.08;;;;;;;22.24;100.00;96557.41;6243539;23;20020;-95
2022/10/15 06:03:34;;;;;;;6.28;2.03;;;;;;;21.74;100.00;96553.09;6245786;23;20227;-94
2022/10/15 06:06:00;;;;;;;7.88;2.15;;;;;;;21.30;100.00;96552.53;6242958;23;20071;-96
2022/10/15 06:08:27;;;;;;;8.32;2.13;;;;;;;21.45;100.00;96540.56;6246198;23;20050;-95
2022/10/15 06:10:54;;;;;;;6.93;1.88;;;;;;;21.93;100.00;96557.53;6243300;23;20098;-96
2022/10/15 06:13:23;;;;;;;5.75;1.70;;;;;;;21.29;100.00;96550.84;6243724;23;20004;-96
2022/10/15 06:15:50;;;;;;;7.70;1.60;;;;;;;21.01;100.00;96537.38;6245237;23;20744;-96
2022/10/15 06:18:15;;;;;;;6.63;1.92;;;;;;;20.87;100.00;96549.16;6248203;23;20008;-96
2022/10/15 06:20:42;;;;;;;6.45;1.50;;;;;;;20.45;100.00;96544.72;6249717;23;20390;-96
2022/10/15 06:23:09;;;;;;;8.50;1.60;;;;;;;22.31;100.00;96539.09;6244117;23;20671;-96
2022/10/15 06:25:34;;;;;;;5.70;1.83;;;;;;;21.08;100.00;96554.41;6248500;23;20004;-96
2022/10/15 06:28:05;;;;;;;5.30;1.40;;;;;;;21.07;100.00;96550.09;6247249;23;20512;-96
2022/10/15 06:30:30;;;;;;;4.82;1.50;;;;;;;22.04;100.00;96530.03;6246487;23;20004;-95
2022/10/15 06:32:56;;;;;;;6.00;1.52;;;;;;;21.64;100.00;96533.66;6245221;23;20007;-95
2022/10/15 06:35:25;;;;;;;6.03;1.50;;;;;;;20.80;100.00;96522.38;6244845;23;20008;-96
2022/10/15 06:37:51;;;;;;;6.13;1.50;;;;;;;21.53;100.00;96541.72;6246110;23;20526;-96
2022/10/15 06:40:20;;;;;;;5.72;1.20;;;;;;;21.52;100.00;96534.72;6247029;23;20007;-96
2022/10/15 06:42:45;;;;;;;6.93;1.60;;;;;;;20.53;100.00;96541.44;6242614;23;20004;-96
2022/10/15 06:45:11;;;;;;;6.30;1.40;;;;;;;20.52;100.00;96525.69;6248535;23;20024;-96
2022/10/15 06:47:39;;;;;;;4.85;1.30;;;;;;;20.58;100.00;96530.44;6245115;23;20014;-96
2022/10/15 06:50:05;;;;;;;5.72;1.17;;;;;;;20.85;100.00;96529.06;6243143;23;20050;-96
2022/10/15 06:52:31;;;;;;;5.50;1.20;;;;;;;21.47;100.00;96536.00;6249610;23;20008;-96
2022/10/15 06:54:57;;;;;;;6.55;1.50;;;;;;;21.38;100.00;96536.78;6247932;23;20029;-96
2022/10/15 06:57:41;;;;;;;7.70;1.63;;;;;;;21.89;100.00;96545.53;6246983;23;20000;-96
2022/10/15 07:00:39;;;;;;;5.47;1.65;;;;;;;21.03;100.00;96546.03;6245710;23;20011;-96
2022/10/15 07:03:06;;;;;;;7.32;1.80;;;;;;;21.29;100.00;96540.25;6236877;23;20103;-96
2022/10/15 07:05:32;;;;;;;5.65;1.63;;;;;;;21.16;100.00;96547.63;6241222;23;20012;-96
2022/10/15 07:07:59;;;;;;;6.18;1.50;;;;;;;21.70;100.00;96543.72;6245284;23;20011;-96
2022/10/15 07:10:26;;;;;;;7.68;1.85;;;;;;;21.21;100.00;96546.25;6238412;23;20047;-96
2022/10/15 07:13:04;;;;;;;5.63;1.52;;;;;;;21.68;100.00;96552.78;6248363;23;20008;-96
2022/10/15 07:15:32;;;;;;;7.05;1.55;;;;;;;21.39;100.00;96546.44;6247037;23;20004;-96
2022/10/15 07:18:02;;;;;;;12.23;2.67;;;;;;;20.60;100.00;96547.91;6258295;23;19996;-96
2022/10/15 07:20:37;;;;;;;7.25;1.50;;;;;;;20.50;100.00;96552.31;6252872;23;20004;-96
2022/10/15 07:26:43;;;;;;;4.80;1.15;;;;;;;22.23;100.00;96468.13;6256105;23;20018;-96
2022/10/15 07:29:09;;;;;;;7.88;1.30;;;;;;;22.35;100.00;96497.19;6226413;23;20354;-91
2022/10/15 07:31:40;;;;;;;4.80;1.10;;;;;;;21.70;100.00;96485.34;6211361;23;20004;-91
2022/10/15 07:34:05;;;;;;;5.78;1.30;;;;;;;20.28;100.00;96509.09;6210048;23;20050;-90
2022/10/15 07:36:31;;;;;;;6.53;1.20;;;;;;;21.84;100.00;96529.22;6211396;23;20008;-91
2022/10/15 07:38:57;;;;;;;6.10;1.13;;;;;;;20.84;100.00;96545.97;6210626;23;20318;-90
2022/10/15 07:41:22;;;;;;;5.82;0.93;;;;;;;21.47;100.00;96549.25;6210490;23;20019;-91
2022/10/15 07:43:51;;;;;;;4.30;0.65;;;;;;;21.52;100.00;96540.91;6236599;23;20012;-90
2022/10/15 07:46:17;;;;;;;5.25;0.90;;;;;;;22.53;100.00;96540.63;6210864;23;20019;-90
2022/10/15 07:48:42;;;;;;;5.57;0.88;;;;;;;22.91;99.85;96538.84;6210249;23;20008;-90
2022/10/15 07:51:09;;;;;;;3.30;0.80;;;;;;;23.42;100.00;96541.97;6238715;23;20022;-90
2022/10/15 07:53:36;;;;;;;8.35;1.02;;;;;;;24.82;94.65;96559.22;6237695;23;20477;-90
2022/10/15 07:56:06;;;;;;;4.65;0.90;;;;;;;24.54;96.49;96550.53;6237870;23;20250;-90
2022/10/15 07:58:33;;;;;;;6.00;0.90;;;;;;;23.62;96.19;96549.81;6211749;23;20000;-90
2022/10/15 08:01:00;;;;;;;7.43;1.40;;;;;;;22.65;99.24;96526.19;6211848;23;20495;-90
2022/10/15 08:03:26;;;;;;;6.13;0.90;;;;;;;22.81;99.85;96546.00;6210640;23;20019;-90
2022/10/15 08:05:54;;;;;;;4.82;1.00;;;;;;;22.12;100.00;96566.50;6237763;23;20087;-90
2022/10/15 08:08:25;;;;;;;6.90;1.13;;;;;;;22.36;100.00;96563.44;6239212;23;20066;-90
2022/10/15 08:10:50;;;;;;;6.22;0.70;;;;;;;21.35;100.00;96565.38;6237507;23;20004;-90
2022/10/15 08:13:16;;;;;;;6.13;0.98;;;;;;;20.60;100.00;96569.09;6212105;23;20054;-90
2022/10/15 08:15:42;;;;;;;4.53;1.05;;;;;;;21.84;100.00;96555.75;6209926;23;20046;-90
2022/10/15 08:18:08;;;;;;;5.38;0.70;;;;;;;21.86;100.00;96559.09;6210003;23;20010;-90
2022/10/15 08:20:36;;;;;;;6.13;1.15;;;;;;;21.87;100.00;96559.94;6211830;23;20004;-90
2022/10/15 08:23:01;;;;;;;4.78;1.00;;;;;;;22.93;100.00;96554.63;6213456;23;20483;-91
2022/10/15 08:25:27;;;;;;;3.97;0.90;;;;;;;23.32;99.34;96570.44;6213391;23;20055;-91
2022/10/15 08:27:55;;;;;;;5.97;0.80;;;;;;;23.72;99.01;96571.09;6212104;23;20023;-91
2022/10/15 08:30:20;;;;;;;8.35;1.00;;;;;;;22.32;100.00;96567.31;6213365;23;20051;-91
2022/10/15 08:32:46;;;;;;;4.32;0.80;;;;;;;22.04;100.00;96575.16;6214063;23;20014;-90
2022/10/15 08:35:11;;;;;;;6.47;0.88;;;;;;;21.01;100.00;96566.53;6239665;23;20543;-90
2022/10/15 08:37:37;;;;;;;7.70;1.08;;;;;;;23.74;97.50;96572.56;6212516;23;20000;-90
2022/10/15 08:40:04;;;;;;;7.10;1.00;;;;;;;23.98;94.29;96569.38;6240423;23;20425;-90
2022/10/15 08:42:38;;;;;;;2.78;0.63;;;;;;;24.30;95.27;96565.31;6212851;23;20004;-90
2022/10/15 08:45:12;;;;;;;5.55;1.00;;;;;;;24.18;94.68;96572.72;6212792;23;20020;-90
2022/10/15 08:47:45;;;;;;;5.25;0.75;;;;;;;23.35;94.95;96572.81;6237337;23;20004;-89
2022/10/15 08:50:41;;;;;;;3.45;0.82;;;;;;;24.21;91.45;96587.53;6238590;23;20026;-90
2022/10/15 08:53:13;;;;;;;5.72;0.90;;;;;;;23.20;93.57;96582.25;6240870;23;19996;-90
2022/10/15 08:55:42;;;;;;;6.00;1.10;;;;;;;22.71;94.08;96593.03;6212473;23;20091;-90
2022/10/15 08:58:23;;;;;;;4.40;0.98;;;;;;;22.99;96.84;96578.81;6213117;23;20083;-90
2022/10/15 09:00:56;;;;;;;5.90;1.10;;;;;;;23.72;92.14;96579.06;6214500;23;20493;-90
2022/10/15 09:03:50;;;;;;;9.00;1.10;;;;;;;22.32;97.97;96592.06;6241075;23;20019;-90
2022/10/15 09:06:37;;;;;;;4.55;1.08;;;;;;;23.07;97.77;96591.38;6241303;23;20050;-90
2022/10/15 09:09:30;;;;;;;6.00;1.02;;;;;;;23.08;95.16;96586.91;6213766;23;20004;-90
2022/10/15 09:12:16;;;;;;;4.90;1.00;;;;;;;24.18;91.98;96593.19;6239972;23;20012;-90
2022/10/15 09:14:45;;;;;;;8.40;1.20;;;;;;;22.99;92.88;96600.09;6215067;23;20007;-90
2022/10/15 09:17:20;;;;;;;5.20;1.17;;;;;;;22.60;93.66;96597.53;6212807;23;20012;-91
2022/10/15 09:19:50;;;;;;;5.65;0.90;;;;;;;22.98;93.41;96608.22;6240573;23;20099;-90
2022/10/15 09:22:18;;;;;;;7.50;1.17;;;;;;;24.27;93.05;96610.06;6241323;23;20500;-90
2022/10/15 09:24:43;;;;;;;4.78;0.77;;;;;;;23.11;87.34;96605.22;6239680;23;20012;-90
2022/10/15 09:27:29;;;;;;;4.72;0.70;;;;;;;24.17;86.30;96608.31;6212520;23;20023;-90
2022/10/15 09:30:01;;;;;;;7.03;1.13;;;;;;;23.59;88.12;96629.97;6214084;23;20014;-91
2022/10/15 09:32:57;;;;;;;5.20;1.00;;;;;;;26.39;79.11;96630.03;6241851;23;20004;-90
2022/10/15 09:35:33;;;;;;;7.13;1.40;;;;;;;24.36;84.98;96636.63;6213888;23;20052;-90
2022/10/15 09:38:16;;;;;;;5.38;0.80;;;;;;;24.94;81.12;96634.47;6213669;23;20004;-91
2022/10/15 09:40:59;;;;;;;8.60;1.15;;;;;;;24.24;79.78;96640.50;6213645;23;20092;-90
2022/10/15 09:43:30;;;;;;;;;;;;;;;24.09;81.67;96637.56;6213352;23;20342;-91
2022/10/15 09:45:56;;;;;;;9.48;1.10;;;;;;;24.22;77.16;96649.63;6213814;23;19919;-91
2022/10/15 09:48:22;;;;;;;6.50;1.00;;;;;;;24.95;75.21;96651.28;6240792;23;20004;-91
2022/10/15 09:51:18;;;;;;;6.32;0.98;;;;;;;24.74;72.82;96648.97;6213565;23;20039;-90
2022/10/15 09:54:00;;;;;;;4.78;0.80;;;;;;;24.82;69.90;96660.53;6240507;23;20085;-90
2022/10/15 09:56:34;;;;;;;4.75;0.90;;;;;;;26.02;67.62;96668.72;6214345;23;20062;-90
2022/10/15 09:58:59;;;;;;;4.72;0.80;;;;;;;26.23;69.06;96662.09;6213610;23;20000;-91
2022/10/15 10:01:28;;;;;;;6.20;1.08;;;;;;;25.06;70.48;96661.69;6214282;23;20019;-91
2022/10/15 10:04:10;;;;;;;6.88;1.08;;;;;;;24.72;72.06;96659.78;6241086;23;20030;-91
2022/10/15 10:06:52;;;;;;;5.78;0.80;;;;;;;23.76;75.40;96665.56;6241093;23;20007;-91
2022/10/15 10:09:30;;;;;;;7.80;1.23;;;;;;;25.31;69.29;96677.84;6213153;23;20103;-91
2022/10/15 10:12:00;;;;;;;8.32;1.30;;;;;;;23.58;73.95;96662.88;6213933;23;20015;-91
2022/10/15 10:14:32;;;;;;;6.05;0.88;;;;;;;24.93;74.95;96682.59;6241261;23;20007;-92
2022/10/15 10:17:09;;;;;;;5.90;0.88;;;;;;;25.80;72.46;96662.09;6240989;23;20429;-90
2022/10/15 10:19:35;;;;;;;5.97;1.00;;;;;;;24.83;73.23;96654.22;6240554;23;20004;-91
2022/10/15 10:22:18;;;;;;;6.60;0.98;;;;;;;24.05;70.27;96659.28;6213286;23;20000;-90
2022/10/15 10:24:47;;;;;;;7.93;0.93;;;;;;;24.19;74.36;96656.13;6239098;23;20047;-90
2022/10/15 10:27:26;;;;;;;5.38;1.02;;;;;;;25.49;70.97;96662.63;6238850;22;20016;-90
2022/10/15 10:30:00;;;;;;;7.75;1.00;;;;;;;24.45;71.65;96669.50;6210078;23;20015;-90
2022/10/15 10:32:31;;;;;;;4.68;0.80;;;;;;;26.60;67.21;96676.84;6211826;23;20016;-90
2022/10/15 10:34:59;;;;;;;3.88;0.60;;;;;;;25.42;71.84;96664.28;6212856;23;20716;-90
2022/10/15 10:37:26;;;;;;;4.68;0.90;;;;;;;26.18;69.18;96672.41;6213239;23;20425;-91
2022/10/15 10:39:56;;;;;;;6.20;1.23;;;;;;;25.33;69.61;96670.53;6213193;23;20035;-90
2022/10/15 10:42:31;;;;;;;3.20;0.73;;;;;;;25.81;66.58;96677.13;6240212;23;20012;-90
2022/10/15 10:45:15;;;;;;;8.57;1.20;;;;;;;24.73;68.56;96680.09;6240811;23;20437;-91
2022/10/15 10:47:41;;;;;;;3.92;0.70;;;;;;;26.53;63.89;96683.84;6239792;23;20087;-90
2022/10/15 10:50:32;;;;;;;5.65;0.85;;;;;;;26.06;64.49;96685.25;6241032;23;20043;-91
2022/10/15 10:53:30;;;;;;;7.18;1.02;;;;;;;27.61;62.52;96669.38;6240237;23;20058;-90
2022/10/15 10:55:57;;;;;;;7.25;1.10;;;;;;;27.45;63.94;96680.16;6238905;23;20709;-90
2022/10/15 10:58:26;;;;;;;5.47;0.75;;;;;;;25.82;64.90;96686.81;6213385;23;20012;-90
2022/10/15 11:00:54;;;;;;;5.32;0.82;;;;;;;26.04;65.15;96679.22;6240128;23;20012;-90
2022/10/15 11:03:42;;;;;;;5.05;1.00;;;;;;;24.05;67.70;96673.47;6240979;23;20512;-90
2022/10/15 11:06:28;;;;;;;7.57;0.90;;;;;;;23.30;69.79;96676.16;6212780;23;20299;-91
2022/10/15 11:09:36;;;;;;;7.63;1.05;;;;;;;23.13;73.49;96691.88;6210447;23;20434;-90
2022/10/15 11:12:28;;;;;;;7.45;0.80;;;;;;;24.59;68.62;96696.63;6225492;23;20008;-91
2022/10/15 11:15:00;;;;;;;7.53;0.80;;;;;;;23.10;70.69;96685.97;6211745;23;20028;-89
2022/10/15 11:17:53;;;;;;;9.55;1.45;;;;;;;23.57;71.20;96682.50;6239882;23;20008;-89
2022/10/15 11:20:28;;;;;;;5.70;0.70;;;;;;;24.17;70.71;96693.53;6212987;23;20039;-90
2022/10/15 11:23:25;;;;;;;8.60;1.13;;;;;;;24.09;73.29;96680.16;6240088;23;20473;-90
2022/10/15 11:26:16;;;;;;;5.68;0.98;;;;;;;23.52;69.08;96694.41;6237128;23;20008;-90
2022/10/15 11:28:50;;;;;;;4.88;0.90;;;;;;;23.44;68.72;96691.63;6237012;22;20024;-90
2022/10/15 11:32:03;;;;;;;6.25;1.10;;;;;;;24.65;67.11;96694.22;6239357;23;20334;-90
2022/10/15 11:34:37;;;;;;;5.07;0.80;;;;;;;25.27;66.40;96692.50;6115808;23;20013;-91
2022/10/15 11:37:26;;;;;;;5.95;0.98;;;;;;;24.15;69.14;96684.03;6114654;23;20488;-90
2022/10/15 11:40:14;;;;;;;7.55;0.80;;;;;;;23.17;69.76;96689.75;6089876;23;20018;-90
2022/10/15 11:42:55;;;;;;;4.15;0.77;;;;;;;25.90;63.71;96696.66;6116521;23;20479;-91
2022/10/15 11:45:29;;;;;;;7.13;1.20;;;;;;;22.44;73.89;96701.69;6090770;23;20005;-90
2022/10/15 11:48:16;;;;;;;8.35;1.20;;;;;;;24.73;72.20;96677.44;6091606;23;20348;-90
2022/10/15 11:50:54;;;;;;;13.73;1.73;;;;;;;24.13;72.63;96689.50;6116492;23;20065;-90